Time;durP1;ratioP1;P1;durP2;ratioP2;P2;SDS_P1;SDS_P2;PMS_P1;PMS_P2;Temp;Humidity;BMP_temperature;BMP_pressure;BME280_temperature;BME280_humidity;BME280_pressure;Samples;Min_cycle;Max_cycle;Signal;HPM_P1;HPM_P2
2023/05/31 00:02:13;;;;;;;1.27;0.88;;;;;;;27.45;36.68;101240.16;7399508;19;20014;-59
2023/05/31 00:04:39;;;;;;;9.30;1.38;;;;;;;27.33;36.52;101238.88;7398839;19;20070;-59
2023/05/31 00:07:06;;;;;;;1.13;0.55;;;;;;;27.29;36.34;101237.69;7395872;19;20015;-59
2023/05/31 00:09:32;;;;;;;4.43;0.98;;;;;;;27.34;36.50;101243.28;7396427;19;20018;-59
2023/05/31 00:11:59;;;;;;;1.75;0.65;;;;;;;27.40;36.39;101240.28;7399118;19;20014;-60
2023/05/31 00:14:25;;;;;;;2.38;0.80;;;;;;;27.40;36.21;101240.28;7397834;19;20341;-59
2023/05/31 00:16:52;;;;;;;1.88;1.08;;;;;;;27.40;36.66;101243.91;7394334;19;20027;-59
2023/05/31 00:19:18;;;;;;;14.02;1.15;;;;;;;27.40;36.64;101243.13;7395809;19;20412;-59
2023/05/31 00:21:45;;;;;;;4.15;0.93;;;;;;;27.44;36.07;101243.56;7394224;19;20015;-60
2023/05/31 00:24:12;;;;;;;0.70;0.70;;;;;;;27.39;36.58;101245.25;7397375;19;20484;-59
2023/05/31 00:26:38;;;;;;;4.57;1.05;;;;;;;27.44;36.07;101249.31;7395973;19;20026;-59
2023/05/31 00:29:05;;;;;;;0.75;0.57;;;;;;;27.36;36.68;101251.31;7394137;19;20411;-59
2023/05/31 00:31:31;;;;;;;2.25;1.38;;;;;;;27.38;36.66;101249.44;7392714;19;20039;-60
2023/05/31 00:33:57;;;;;;;2.05;0.77;;;;;;;27.32;36.87;101242.28;7394723;19;20463;-59
2023/05/31 00:36:24;;;;;;;2.15;1.30;;;;;;;27.33;36.79;101253.16;7396883;19;20049;-60
2023/05/31 00:38:50;;;;;;;0.57;0.32;;;;;;;27.29;36.94;101254.88;7394469;19;20045;-60
2023/05/31 00:41:17;;;;;;;0.73;0.50;;;;;;;27.31;37.07;101255.06;7394785;19;20015;-59
2023/05/31 00:43:43;;;;;;;0.77;0.63;;;;;;;27.32;36.82;101265.94;7399654;19;20015;-59
2023/05/31 00:46:36;;;;;;;3.92;1.10;;;;;;;27.38;36.78;101260.09;7391800;19;20058;-60
2023/05/31 00:49:04;;;;;;;4.30;0.88;;;;;;;27.36;36.89;101265.63;7397259;19;20035;-59
2023/05/31 00:51:33;;;;;;;2.72;1.58;;;;;;;27.33;36.85;101261.00;7395532;19;20015;-59
2023/05/31 00:54:01;;;;;;;7.13;0.60;;;;;;;27.34;37.28;101256.81;7394367;19;20463;-59
2023/05/31 00:56:27;;;;;;;1.05;1.05;;;;;;;27.37;36.77;101255.72;7392276;19;20022;-61
2023/05/31 00:58:56;;;;;;;2.05;0.47;;;;;;;27.64;36.72;101257.06;7393645;19;20027;-60
2023/05/31 01:01:27;;;;;;;0.80;0.80;;;;;;;27.61;36.67;101261.06;7395215;19;20373;-60
2023/05/31 01:03:55;;;;;;;1.90;0.97;;;;;;;27.26;37.03;101250.25;7393480;19;20014;-59
2023/05/31 01:06:21;;;;;;;1.02;0.68;;;;;;;27.24;37.47;101252.91;7392976;19;20375;-59
2023/05/31 01:08:51;;;;;;;1.40;0.90;;;;;;;27.20;37.07;101252.50;7394252;19;20011;-59
2023/05/31 01:11:53;;;;;;;2.20;0.98;;;;;;;27.12;37.06;101251.63;7396158;19;20414;-59
2023/05/31 01:14:42;;;;;;;0.90;0.38;;;;;;;27.08;37.36;101256.94;7393859;19;20007;-60
2023/05/31 01:17:16;;;;;;;0.55;0.38;;;;;;;27.08;37.40;101251.22;7394609;19;20473;-60
2023/05/31 01:19:48;;;;;;;4.03;0.95;;;;;;;27.15;37.45;101256.25;7393835;19;20018;-59
2023/05/31 01:22:47;;;;;;;1.50;0.52;;;;;;;27.10;37.79;101245.72;7393149;19;20019;-59
2023/05/31 01:25:42;;;;;;;1.02;0.85;;;;;;;27.03;37.83;101247.19;7394660;19;20014;-59
2023/05/31 01:28:10;;;;;;;0.93;0.40;;;;;;;26.93;37.59;101252.63;7391610;19;20024;-59
2023/05/31 01:30:37;;;;;;;1.45;0.88;;;;;;;26.99;37.56;101249.63;7393130;19;20022;-60
2023/05/31 01:33:09;;;;;;;0.75;0.75;;;;;;;26.99;37.86;101249.63;7393468;19;20015;-60
2023/05/31 01:35:36;;;;;;;0.47;0.47;;;;;;;27.00;38.00;101251.94;7392645;19;20013;-60
2023/05/31 01:38:02;;;;;;;1.58;0.60;;;;;;;26.97;38.01;101261.63;7391717;19;20018;-59
2023/05/31 01:40:29;;;;;;;9.07;0.82;;;;;;;26.95;37.64;101258.56;7391516;19;20066;-60
2023/05/31 01:42:56;;;;;;;0.30;0.28;;;;;;;26.99;37.51;101261.84;7395406;19;20017;-59
2023/05/31 01:45:23;;;;;;;0.10;0.10;;;;;;;26.95;37.69;101252.84;7392399;19;20010;-59
2023/05/31 01:47:56;;;;;;;0.47;0.40;;;;;;;26.91;38.16;101243.84;7394193;19;20030;-59
2023/05/31 01:50:24;;;;;;;0.32;0.28;;;;;;;26.95;38.30;101243.47;7391728;19;20482;-59
2023/05/31 01:52:50;;;;;;;0.20;0.13;;;;;;;26.97;38.40;101250.19;7391042;19;20032;-59
2023/05/31 01:55:16;;;;;;;0.47;0.10;;;;;;;27.00;37.92;101246.22;7393301;19;20010;-60
2023/05/31 01:57:45;;;;;;;0.10;0.10;;;;;;;27.07;38.06;101241.91;7391113;19;20468;-59
2023/05/31 02:00:14;;;;;;;0.50;0.17;;;;;;;27.05;38.24;101248.16;7396944;19;20014;-60
2023/05/31 02:02:44;;;;;;;0.20;0.20;;;;;;;27.02;38.46;101239.94;7399621;19;20017;-59
2023/05/31 02:05:13;;;;;;;0.47;0.20;;;;;;;27.11;38.28;101244.41;7400274;19;20036;-59
2023/05/31 02:07:44;;;;;;;0.65;0.65;;;;;;;27.05;37.89;101245.31;7399153;19;20345;-59
2023/05/31 02:10:11;;;;;;;0.28;0.28;;;;;;;27.01;38.12;101241.25;7398869;19;20018;-59
2023/05/31 02:12:38;;;;;;;0.50;0.50;;;;;;;26.99;38.10;101238.97;7402293;19;20446;-60
2023/05/31 02:15:10;;;;;;;1.45;0.35;;;;;;;26.92;38.10;101236.78;7399727;19;20496;-60
2023/05/31 02:17:40;;;;;;;0.15;0.15;;;;;;;26.94;38.21;101236.25;7396604;19;20019;-61
2023/05/31 02:20:12;;;;;;;0.45;0.40;;;;;;;26.95;38.27;101238.53;7399656;19;20022;-60
2023/05/31 02:22:40;;;;;;;0.63;0.32;;;;;;;26.82;38.28;101235.75;7398147;19;20018;-60
2023/05/31 02:25:08;;;;;;;0.20;0.20;;;;;;;26.86;38.08;101239.03;7399867;19;20361;-59
2023/05/31 02:27:35;;;;;;;0.82;0.22;;;;;;;26.84;38.33;101238.03;7398316;19;20035;-59
2023/05/31 02:30:02;;;;;;;2.88;0.43;;;;;;;26.90;38.21;101242.28;7399306;19;20503;-59
2023/05/31 02:32:28;;;;;;;0.90;0.70;;;;;;;26.90;38.56;101242.28;7397896;19;20015;-60
2023/05/31 02:34:54;;;;;;;1.15;0.40;;;;;;;26.94;38.09;101245.56;7402547;19;20014;-59
2023/05/31 02:37:20;;;;;;;0.88;0.70;;;;;;;26.87;38.16;101245.50;7397240;19;20385;-60
2023/05/31 02:39:47;;;;;;;0.30;0.30;;;;;;;26.84;38.66;101253.09;7397869;19;20014;-59
2023/05/31 02:42:14;;;;;;;0.82;0.52;;;;;;;26.86;38.94;101247.59;7402650;19;20463;-60
2023/05/31 02:44:40;;;;;;;0.20;0.20;;;;;;;26.82;38.62;101257.84;7401226;19;20014;-60
2023/05/31 02:47:06;;;;;;;0.10;0.08;;;;;;;26.75;38.84;101242.13;7396044;19;20030;-60
2023/05/31 02:49:33;;;;;;;0.68;0.45;;;;;;;26.80;39.01;101244.09;7397746;19;20352;-60
2023/05/31 02:51:59;;;;;;;0.85;0.52;;;;;;;26.79;38.82;101251.13;7397350;19;20018;-60
2023/05/31 02:54:57;;;;;;;0.50;0.30;;;;;;;26.81;39.06;101244.88;7402745;19;20451;-60
2023/05/31 02:57:27;;;;;;;0.63;0.37;;;;;;;26.79;38.66;101239.69;7395676;19;20014;-60
2023/05/31 03:00:00;;;;;;;0.20;0.20;;;;;;;26.81;38.74;101239.91;7397693;19;20243;-60
2023/05/31 03:02:26;;;;;;;0.73;0.70;;;;;;;26.78;39.18;101246.75;7397299;19;20031;-60
2023/05/31 03:05:23;;;;;;;2.65;1.00;;;;;;;26.97;38.84;101241.59;7395395;19;20015;-60
2023/05/31 03:07:49;;;;;;;0.32;0.32;;;;;;;27.05;38.80;101248.16;7396721;19;20019;-60
2023/05/31 03:10:15;;;;;;;1.33;0.20;;;;;;;27.07;38.58;101249.72;7395976;19;20019;-60
2023/05/31 03:12:42;;;;;;;1.45;0.65;;;;;;;30.78;34.74;101244.16;7400254;19;20010;-59
2023/05/31 03:15:09;;;;;;;0.40;0.40;;;;;;;31.07;33.95;101245.34;7394874;19;20030;-60
2023/05/31 03:17:37;;;;;;;0.22;0.22;;;;;;;31.61;33.27;101239.91;7394190;19;20074;-59
2023/05/31 03:20:06;;;;;;;0.13;0.10;;;;;;;31.84;32.84;101243.31;7396014;19;20027;-60
2023/05/31 03:22:33;;;;;;;0.35;0.20;;;;;;;32.30;32.36;101229.16;7398112;19;20752;-60
2023/05/31 03:24:59;;;;;;;0.85;0.63;;;;;;;32.39;31.66;101232.13;7400585;19;20018;-60
2023/05/31 03:27:26;;;;;;;0.85;0.10;;;;;;;32.37;32.03;101231.19;7396104;19;20024;-59
2023/05/31 03:29:53;;;;;;;0.40;0.40;;;;;;;32.25;31.86;101230.94;7396116;19;20078;-60
2023/05/31 03:32:19;;;;;;;1.48;0.30;;;;;;;32.33;32.14;101234.50;7396544;19;20039;-60
2023/05/31 03:34:46;;;;;;;10.35;0.28;;;;;;;32.00;31.70;101241.81;7399192;19;20022;-60
2023/05/31 03:37:12;;;;;;;0.40;0.30;;;;;;;28.07;36.12;101245.72;7395454;19;20023;-62
2023/05/31 03:39:42;;;;;;;0.10;0.10;;;;;;;27.32;36.84;101245.16;7398164;19;20085;-60
2023/05/31 03:42:11;;;;;;;0.50;0.35;;;;;;;27.16;37.76;101237.78;7398663;19;20021;-61
2023/05/31 03:44:37;;;;;;;0.20;0.20;;;;;;;26.92;37.88;101239.66;7398965;19;20003;-60
2023/05/31 03:47:04;;;;;;;0.25;0.22;;;;;;;26.80;38.47;101238.38;7394938;19;20377;-61
2023/05/31 03:49:30;;;;;;;0.40;0.30;;;;;;;26.77;38.30;101228.06;7395038;19;20022;-60
2023/05/31 03:51:56;;;;;;;0.20;0.20;;;;;;;26.67;38.02;101223.34;7396551;19;20014;-61
2023/05/31 03:54:23;;;;;;;2.08;0.20;;;;;;;26.62;38.38;101232.81;7398190;19;20006;-61
2023/05/31 03:56:49;;;;;;;1.05;0.17;;;;;;;26.68;38.39;101230.59;7396296;19;20022;-60
2023/05/31 03:59:15;;;;;;;0.50;0.30;;;;;;;26.71;38.20;101230.25;7396317;19;20019;-61
2023/05/31 04:01:41;;;;;;;0.10;0.10;;;;;;;26.83;38.35;101228.69;7394559;19;20049;-60
2023/05/31 04:04:07;;;;;;;0.50;0.50;;;;;;;26.90;37.69;101224.38;7396122;19;20021;-60
2023/05/31 04:06:33;;;;;;;0.30;0.22;;;;;;;27.00;37.99;101228.28;7394510;19;20390;-60
2023/05/31 04:09:00;;;;;;;0.20;0.20;;;;;;;26.85;37.80;101228.91;7398412;19;20035;-60
2023/05/31 04:11:27;;;;;;;0.50;0.40;;;;;;;26.86;37.69;101236.16;7395882;19;20014;-59
2023/05/31 04:13:53;;;;;;;0.10;0.10;;;;;;;27.06;37.25;101237.50;7396212;19;20006;-59
2023/05/31 04:16:19;;;;;;;0.38;0.30;;;;;;;26.88;37.69;101241.31;7394267;19;20020;-60
2023/05/31 04:18:46;;;;;;;0.50;0.50;;;;;;;26.80;37.84;101231.91;7394832;19;20743;-60
2023/05/31 04:21:13;;;;;;;0.43;0.43;;;;;;;26.78;37.92;101223.88;7392617;19;20070;-60
2023/05/31 04:23:39;;;;;;;2.47;0.20;;;;;;;27.11;37.32;101216.56;7394759;19;20081;-60
2023/05/31 04:26:06;;;;;;;0.10;0.10;;;;;;;27.09;37.60;101221.31;7393172;19;20022;-60
2023/05/31 04:28:33;;;;;;;0.10;0.10;;;;;;;27.03;37.40;101227.16;7392643;19;20007;-60
2023/05/31 04:31:00;;;;;;;0.20;0.20;;;;;;;26.98;37.49;101214.53;7397196;19;20020;-59
2023/05/31 04:33:31;;;;;;;0.10;0.10;;;;;;;26.93;37.68;101218.31;7396798;19;20069;-60
2023/05/31 04:35:59;;;;;;;0.10;0.10;;;;;;;26.86;37.43;101213.28;7398053;19;20002;-60
2023/05/31 04:38:27;;;;;;;0.50;0.50;;;;;;;26.82;37.27;101215.72;7394397;19;20027;-60
2023/05/31 04:40:57;;;;;;;0.28;0.28;;;;;;;26.89;37.54;101215.03;7395728;19;20014;-59
2023/05/31 04:43:25;;;;;;;2.05;0.50;;;;;;;26.96;37.51;101208.59;7395622;19;20039;-60
2023/05/31 04:45:53;;;;;;;0.95;0.65;;;;;;;27.00;37.23;101209.03;7395698;19;20045;-59
2023/05/31 04:48:20;;;;;;;0.10;0.10;;;;;;;27.10;37.52;101208.53;7397715;19;20019;-60
2023/05/31 04:50:48;;;;;;;0.10;0.10;;;;;;;27.16;36.93;101209.91;7395606;19;20010;-60
2023/05/31 04:53:14;;;;;;;0.10;0.10;;;;;;;27.23;36.83;101212.09;7395744;19;20007;-60
2023/05/31 04:55:40;;;;;;;0.10;0.10;;;;;;;27.26;36.93;101210.22;7397020;19;20511;-61
2023/05/31 04:58:09;;;;;;;0.52;0.15;;;;;;;27.31;37.10;101218.63;7392669;19;20014;-60
2023/05/31 05:00:37;;;;;;;0.13;0.10;;;;;;;27.36;37.01;101214.13;7395129;19;20013;-59
2023/05/31 05:03:11;;;;;;;0.20;0.10;;;;;;;27.42;36.91;101220.44;7395269;19;20034;-59
2023/05/31 05:05:39;;;;;;;0.15;0.15;;;;;;;27.44;36.69;101220.69;7395975;19;20015;-59
2023/05/31 05:08:05;;;;;;;1.05;0.30;;;;;;;27.45;36.77;101227.94;7395897;19;20086;-59
2023/05/31 05:10:31;;;;;;;0.10;0.10;;;;;;;27.48;37.06;101226.81;7395984;19;20028;-59
2023/05/31 05:12:57;;;;;;;1.65;0.22;;;;;;;27.47;36.88;101225.25;7391701;19;20035;-60
2023/05/31 05:15:24;;;;;;;0.20;0.10;;;;;;;27.47;37.30;101225.25;7391290;19;20010;-59
2023/05/31 05:17:50;;;;;;;0.32;0.32;;;;;;;27.44;37.08;101218.56;7390015;19;20035;-60
2023/05/31 05:20:16;;;;;;;0.22;0.22;;;;;;;27.53;37.01;101218.06;7392456;19;20085;-60
2023/05/31 05:22:51;;;;;;;0.30;0.20;;;;;;;27.55;37.20;101231.81;7392080;19;20091;-60
2023/05/31 05:25:18;;;;;;;0.10;0.05;;;;;;;27.56;37.02;101227.63;7397810;19;20022;-59
2023/05/31 05:27:44;;;;;;;0.13;0.13;;;;;;;27.71;36.74;101231.38;7391222;19;20035;-59
2023/05/31 05:30:11;;;;;;;0.55;0.30;;;;;;;27.77;36.61;101231.19;7392235;19;20036;-59
2023/05/31 05:32:37;;;;;;;0.22;0.20;;;;;;;27.64;37.07;101231.31;7395561;19;20015;-59
2023/05/31 05:35:05;;;;;;;0.10;0.10;;;;;;;27.49;37.09;101223.38;7405016;19;20335;-59
2023/05/31 05:37:31;;;;;;;0.10;0.10;;;;;;;27.53;37.30;101228.75;7403538;19;20455;-59
2023/05/31 05:39:59;;;;;;;0.17;0.17;;;;;;;27.53;37.21;101237.31;7399892;19;20035;-59
2023/05/31 05:42:27;;;;;;;0.10;0.10;;;;;;;27.51;37.14;101231.41;7403710;19;20014;-59
2023/05/31 05:44:53;;;;;;;0.10;0.10;;;;;;;27.48;37.16;101233.28;7403714;19;20015;-59
2023/05/31 05:47:19;;;;;;;0.98;0.20;;;;;;;27.52;37.24;101232.94;7399526;19;20070;-60
2023/05/31 05:49:49;;;;;;;0.20;0.20;;;;;;;27.57;37.09;101246.34;7398983;19;20017;-60
2023/05/31 05:52:16;;;;;;;0.20;0.15;;;;;;;27.66;37.26;101243.72;7399302;19;20010;-59
2023/05/31 05:54:42;;;;;;;0.30;0.20;;;;;;;27.61;36.92;101238.91;7404209;19;20014;-59
2023/05/31 05:57:09;;;;;;;0.25;0.25;;;;;;;27.47;37.15;101243.22;7398314;19;20014;-60
2023/05/31 05:59:41;;;;;;;0.10;0.10;;;;;;;27.45;37.39;101239.38;7399076;19;20014;-60
2023/05/31 06:02:20;;;;;;;0.10;0.10;;;;;;;27.42;37.79;101257.66;7398995;19;20023;-59
2023/05/31 06:04:49;;;;;;;0.20;0.10;;;;;;;27.43;37.99;101247.75;7401988;19;20037;-59
2023/05/31 06:07:16;;;;;;;0.10;0.10;;;;;;;27.50;38.02;101242.09;7399310;19;20048;-60
2023/05/31 06:09:43;;;;;;;0.30;0.15;;;;;;;27.59;37.94;101249.41;7399576;19;20459;-60
2023/05/31 06:12:09;;;;;;;0.10;0.10;;;;;;;27.49;37.92;101245.50;7401947;19;20014;-60
2023/05/31 06:14:39;;;;;;;0.63;0.17;;;;;;;27.45;37.79;101245.88;7400791;19;20014;-59
2023/05/31 06:17:06;;;;;;;0.20;0.10;;;;;;;27.46;37.58;101249.50;7398619;19;20570;-59
2023/05/31 06:19:32;;;;;;;0.95;0.20;;;;;;;27.47;37.36;101242.44;7398427;19;20065;-60
2023/05/31 06:21:59;;;;;;;0.75;0.40;;;;;;;27.44;37.22;101243.56;7398625;19;20070;-61
2023/05/31 06:24:26;;;;;;;3.03;0.50;;;;;;;27.53;37.06;101240.19;7400306;19;20471;-60
2023/05/31 06:26:53;;;;;;;0.10;0.10;;;;;;;27.53;37.01;101246.69;7398036;19;20034;-63
2023/05/31 06:29:25;;;;;;;0.40;0.40;;;;;;;27.52;37.28;101250.13;7396995;19;20010;-63
2023/05/31 06:32:19;;;;;;;0.32;0.30;;;;;;;27.40;36.94;101257.44;7396321;19;20041;-63
2023/05/31 06:34:47;;;;;;;0.10;0.10;;;;;;;27.45;37.11;101257.31;7400937;19;20010;-63
2023/05/31 06:37:14;;;;;;;0.10;0.10;;;;;;;27.41;37.59;101250.41;7395431;19;20482;-63
2023/05/31 06:39:40;;;;;;;0.90;0.22;;;;;;;27.46;37.40;101252.38;7398756;19;20098;-62
2023/05/31 06:42:07;;;;;;;1.05;0.30;;;;;;;27.60;37.79;101250.94;7400656;19;20380;-63
2023/05/31 06:44:59;;;;;;;0.20;0.15;;;;;;;27.62;37.57;101251.13;7396336;19;20007;-63
2023/05/31 06:47:45;;;;;;;0.10;0.10;;;;;;;27.68;37.32;101248.88;7396317;19;20035;-63
2023/05/31 06:50:14;;;;;;;0.85;0.25;;;;;;;27.81;37.75;101245.91;7398374;19;20017;-63
2023/05/31 06:53:00;;;;;;;0.35;0.35;;;;;;;27.94;37.44;101257.25;7398237;19;20014;-64
2023/05/31 06:55:26;;;;;;;1.08;0.17;;;;;;;28.02;37.34;101254.47;7403369;19;20018;-63
2023/05/31 06:57:53;;;;;;;0.10;0.10;;;;;;;28.17;37.83;101246.75;7395312;19;20014;-63
2023/05/31 07:00:20;;;;;;;0.82;0.32;;;;;;;28.30;37.85;101255.22;7398725;19;20011;-62
2023/05/31 07:02:46;;;;;;;0.35;0.30;;;;;;;28.43;37.45;101263.66;7396701;19;20014;-63
2023/05/31 07:05:12;;;;;;;0.10;0.10;;;;;;;28.59;37.11;101249.41;7400037;19;20077;-63
2023/05/31 07:07:38;;;;;;;0.20;0.10;;;;;;;28.70;37.59;101251.91;7396607;19;20018;-63
2023/05/31 07:10:05;;;;;;;0.30;0.10;;;;;;;28.76;37.14;101252.53;7397614;19;20377;-63
2023/05/31 07:12:31;;;;;;;0.10;0.10;;;;;;;28.73;37.21;101250.78;7400957;19;20011;-63
2023/05/31 07:14:57;;;;;;;0.30;0.25;;;;;;;28.64;36.94;101251.31;7400215;19;20468;-63
2023/05/31 07:17:23;;;;;;;0.10;0.10;;;;;;;28.63;37.02;101253.41;7397718;19;20013;-62
2023/05/31 07:19:50;;;;;;;1.00;0.10;;;;;;;28.64;36.95;101254.19;7396193;19;20096;-63
2023/05/31 07:22:17;;;;;;;0.35;0.05;;;;;;;28.71;36.88;101262.06;7397796;19;20072;-62
2023/05/31 07:24:44;;;;;;;0.10;0.00;;;;;;;28.66;36.86;101251.50;7401178;19;20479;-64
2023/05/31 07:27:10;;;;;;;0.10;0.10;;;;;;;28.74;36.90;101249.47;7396820;19;20078;-63
2023/05/31 07:29:37;;;;;;;0.30;0.10;;;;;;;28.87;36.85;101250.03;7398140;19;20387;-63
2023/05/31 07:32:03;;;;;;;0.10;0.10;;;;;;;28.99;36.65;101247.59;7398798;19;20018;-64
2023/05/31 07:34:29;;;;;;;0.17;0.15;;;;;;;29.05;36.37;101242.41;7400338;19;20018;-62
2023/05/31 07:36:55;;;;;;;0.75;0.30;;;;;;;29.09;36.29;101248.53;7396420;19;20019;-62
2023/05/31 07:39:22;;;;;;;0.30;0.10;;;;;;;29.08;35.87;101244.16;7396965;19;20014;-61
2023/05/31 07:41:48;;;;;;;0.10;0.00;;;;;;;29.03;36.15;101245.09;7400760;19;20045;-61
2023/05/31 07:44:16;;;;;;;0.43;0.17;;;;;;;28.91;36.08;101243.94;7398146;19;20362;-63
2023/05/31 07:46:43;;;;;;;0.30;0.20;;;;;;;28.92;36.52;101240.50;7397644;19;20014;-61
2023/05/31 07:49:09;;;;;;;0.40;0.20;;;;;;;28.83;36.32;101243.91;7397149;19;20048;-62
2023/05/31 07:51:35;;;;;;;0.65;0.10;;;;;;;29.00;36.20;101246.25;7395222;19;20039;-62
2023/05/31 07:54:02;;;;;;;0.10;0.03;;;;;;;29.06;36.35;101238.22;7398456;19;20014;-61
2023/05/31 07:56:29;;;;;;;0.40;0.10;;;;;;;29.07;36.06;101239.75;7391038;19;20006;-62
2023/05/31 07:58:55;;;;;;;0.10;0.10;;;;;;;29.02;36.16;101243.56;7395869;19;20018;-61
2023/05/31 08:01:22;;;;;;;9.07;0.57;;;;;;;28.91;36.01;101244.69;7396202;19;20336;-61
2023/05/31 08:03:50;;;;;;;0.30;0.10;;;;;;;28.87;36.21;101252.16;7396832;19;20373;-61
2023/05/31 08:06:17;;;;;;;0.10;0.00;;;;;;;28.78;36.02;101241.25;7395929;19;20670;-61
2023/05/31 08:08:43;;;;;;;0.28;0.10;;;;;;;28.75;35.84;101245.25;7395971;19;20011;-61
2023/05/31 08:11:10;;;;;;;0.82;0.30;;;;;;;28.75;36.33;101239.50;7396014;19;20013;-61
2023/05/31 08:13:37;;;;;;;0.17;0.10;;;;;;;28.74;36.05;101240.84;7397862;19;20011;-61
2023/05/31 08:16:04;;;;;;;0.10;0.10;;;;;;;28.65;35.91;101235.66;7396337;19;20006;-61
2023/05/31 08:18:30;;;;;;;2.92;0.40;;;;;;;28.61;36.09;101238.16;7393780;19;20014;-61
2023/05/31 08:20:56;;;;;;;0.73;0.38;;;;;;;28.67;36.05;101235.84;7396374;19;20029;-61
2023/05/31 08:23:23;;;;;;;0.82;0.30;;;;;;;28.75;36.09;101230.91;7396295;19;20400;-61
2023/05/31 08:25:50;;;;;;;1.30;0.68;;;;;;;28.84;36.26;101227.47;7395512;19;20045;-61
2023/05/31 08:28:17;;;;;;;0.32;0.17;;;;;;;28.94;35.79;101232.09;7395714;19;20491;-62
2023/05/31 08:30:44;;;;;;;1.33;0.15;;;;;;;28.93;35.48;101235.53;7397658;19;20463;-61
2023/05/31 08:33:11;;;;;;;0.73;0.15;;;;;;;28.96;35.29;101229.41;7395129;19;20014;-61
2023/05/31 08:35:37;;;;;;;1.23;0.35;;;;;;;28.90;35.70;101236.66;7398816;19;20034;-61
2023/05/31 08:38:03;;;;;;;0.20;0.10;;;;;;;28.82;35.54;101222.31;7393409;19;20074;-61
2023/05/31 08:40:31;;;;;;;0.20;0.20;;;;;;;28.83;36.00;101225.94;7393204;19;20014;-61
2023/05/31 08:43:15;;;;;;;0.75;0.10;;;;;;;28.91;35.70;101229.59;7397478;19;20024;-61
2023/05/31 08:45:44;;;;;;;2.22;0.20;;;;;;;28.95;36.17;101221.38;7395246;19;20032;-61
2023/05/31 08:48:47;;;;;;;1.85;0.30;;;;;;;29.26;35.79;101217.19;7395253;19;20010;-61
2023/05/31 08:51:14;;;;;;;0.50;0.20;;;;;;;29.36;35.36;101221.03;7394253;19;20022;-61
2023/05/31 08:53:42;;;;;;;2.28;0.60;;;;;;;29.55;35.54;101220.63;7395254;19;20019;-61
2023/05/31 08:56:09;;;;;;;1.65;0.20;;;;;;;29.70;35.92;101209.09;7394537;19;20373;-61
2023/05/31 08:58:37;;;;;;;0.60;0.10;;;;;;;29.75;35.65;101208.94;7392348;19;20470;-61
2023/05/31 09:01:03;;;;;;;0.45;0.28;;;;;;;29.77;35.49;101202.63;7394837;19;20043;-62
2023/05/31 09:03:32;;;;;;;0.10;0.10;;;;;;;29.76;35.07;101218.31;7395155;19;20010;-61
2023/05/31 09:05:58;;;;;;;1.08;0.30;;;;;;;29.66;34.72;101215.25;7396983;19;20062;-61
2023/05/31 09:08:24;;;;;;;0.43;0.43;;;;;;;29.63;35.32;101216.41;7392116;19;20031;-61
2023/05/31 09:10:50;;;;;;;1.80;0.57;;;;;;;29.75;35.25;101217.56;7393344;19;20066;-61
2023/05/31 09:13:17;;;;;;;0.57;0.30;;;;;;;29.65;34.75;101213.72;7393749;19;20015;-62
2023/05/31 09:15:45;;;;;;;1.00;0.77;;;;;;;29.57;34.79;101217.94;7392275;19;20467;-60
2023/05/31 09:18:15;;;;;;;0.88;0.65;;;;;;;29.58;34.75;101217.38;7391972;19;20014;-61
2023/05/31 09:20:42;;;;;;;0.47;0.20;;;;;;;29.64;34.97;101223.69;7393150;19;20069;-60
2023/05/31 09:23:09;;;;;;;0.57;0.28;;;;;;;29.80;35.28;101219.44;7392684;19;20010;-61
2023/05/31 09:25:48;;;;;;;0.43;0.20;;;;;;;29.83;34.98;101224.06;7393868;19;20015;-60
2023/05/31 09:28:17;;;;;;;0.93;0.20;;;;;;;29.85;34.99;101220.59;7394524;19;20010;-60
2023/05/31 09:30:43;;;;;;;0.43;0.20;;;;;;;29.78;35.67;101222.13;7393322;19;20341;-60
2023/05/31 09:33:10;;;;;;;1.27;0.47;;;;;;;29.66;35.47;101215.25;7392954;19;20524;-60
2023/05/31 09:35:36;;;;;;;1.58;0.30;;;;;;;29.85;34.87;101224.22;7390090;19;20031;-60
2023/05/31 09:38:06;;;;;;;0.47;0.20;;;;;;;29.78;34.96;101225.00;7392827;19;20033;-61
2023/05/31 09:40:33;;;;;;;1.90;0.13;;;;;;;29.74;34.98;101221.00;7392385;19;20527;-61
2023/05/31 09:43:00;;;;;;;0.77;0.35;;;;;;;29.68;34.89;101212.56;7396396;19;20021;-61
2023/05/31 09:45:28;;;;;;;1.45;0.50;;;;;;;29.47;34.64;101214.91;7396501;19;20039;-60
2023/05/31 09:47:54;;;;;;;1.00;0.30;;;;;;;29.39;35.29;101205.50;7392899;19;20015;-60
2023/05/31 09:50:22;;;;;;;0.40;0.40;;;;;;;29.41;35.25;101205.69;7393190;19;20011;-60
2023/05/31 09:52:55;;;;;;;2.95;0.32;;;;;;;29.47;35.35;101214.91;7392009;19;20482;-61
2023/05/31 09:55:21;;;;;;;0.30;0.20;;;;;;;29.53;35.03;101209.72;7397281;19;20021;-61
2023/05/31 09:57:52;;;;;;;1.30;0.30;;;;;;;29.51;35.30;101208.75;7390382;19;20092;-61
2023/05/31 10:00:18;;;;;;;6.15;0.52;;;;;;;29.59;34.99;101204.53;7393259;19;20011;-62
2023/05/31 10:02:52;;;;;;;1.38;0.43;;;;;;;29.75;35.57;101206.06;7393806;19;20010;-61
2023/05/31 10:05:20;;;;;;;1.65;0.32;;;;;;;29.93;35.46;101204.84;7396760;19;20012;-61
2023/05/31 10:07:49;;;;;;;1.70;0.40;;;;;;;30.05;35.38;101204.44;7391644;19;20007;-60
2023/05/31 10:10:20;;;;;;;0.10;0.00;;;;;;;30.16;34.93;101204.00;7394092;19;20006;-63
2023/05/31 10:12:51;;;;;;;1.05;0.35;;;;;;;30.02;35.46;101205.63;7393721;19;20048;-63
2023/05/31 10:15:27;;;;;;;1.40;0.30;;;;;;;30.93;34.86;101211.69;7396978;19;20006;-63
2023/05/31 10:18:02;;;;;;;4.93;0.30;;;;;;;30.29;34.97;101204.53;7391272;19;20002;-63
2023/05/31 10:20:37;;;;;;;0.95;0.43;;;;;;;30.29;35.26;101206.63;7396962;19;20387;-63
2023/05/31 10:23:07;;;;;;;1.02;0.32;;;;;;;30.25;34.93;101195.56;7398789;19;20019;-64
2023/05/31 10:25:40;;;;;;;1.70;1.08;;;;;;;30.13;35.04;101203.06;7399055;19;20011;-63
2023/05/31 10:28:12;;;;;;;4.03;0.60;;;;;;;30.06;34.79;101200.97;7399880;19;20006;-62
2023/05/31 10:30:41;;;;;;;0.47;0.47;;;;;;;30.01;34.69;101204.06;7397880;19;20010;-86
2023/05/31 10:33:14;;;;;;;1.17;0.40;;;;;;;29.88;35.00;101202.22;7399450;19;20010;-87
2023/05/31 10:35:40;;;;;;;0.88;0.80;;;;;;;29.85;35.43;101198.38;7407250;19;20035;-87
2023/05/31 10:38:08;;;;;;;0.10;0.05;;;;;;;29.76;35.44;101207.59;7400243;19;20048;-87
2023/05/31 10:40:34;;;;;;;1.13;0.35;;;;;;;29.71;35.53;101202.81;7401308;19;20350;-87
2023/05/31 10:43:09;;;;;;;0.13;0.10;;;;;;;29.71;35.81;101205.69;7406433;19;20007;-87
2023/05/31 10:45:40;;;;;;;0.35;0.10;;;;;;;29.59;35.61;101203.75;7408671;19;20014;-87
2023/05/31 10:48:50;;;;;;;0.75;0.68;;;;;;;29.47;35.71;101208.38;7405339;19;20014;-88
2023/05/31 10:51:16;;;;;;;1.13;0.45;;;;;;;29.52;35.97;101211.06;7403194;19;20018;-87
2023/05/31 10:53:46;;;;;;;4.35;0.20;;;;;;;29.54;35.79;101205.50;7404274;19;20513;-88
2023/05/31 10:56:14;;;;;;;0.77;0.30;;;;;;;29.69;35.86;101205.47;7401318;19;20529;-89
2023/05/31 10:58:43;;;;;;;0.50;0.50;;;;;;;29.90;36.11;101205.25;7405985;19;20018;-90
2023/05/31 11:01:13;;;;;;;1.08;0.30;;;;;;;30.03;36.17;101210.00;7414548;19;20058;-90
2023/05/31 11:03:47;;;;;;;;;;;;;;;30.30;35.69;101208.91;7416429;19;20015;-90
2023/05/31 11:06:15;;;;;;;0.75;0.25;;;;;;;30.30;35.47;101203.16;7419788;19;19915;-90
2023/05/31 11:09:14;;;;;;;0.65;0.40;;;;;;;30.46;35.35;101198.91;7409868;19;20073;-89
2023/05/31 11:11:40;;;;;;;0.68;0.32;;;;;;;30.51;35.25;101200.03;7393193;19;20018;-88
2023/05/31 11:14:09;;;;;;;0.73;0.43;;;;;;;30.49;35.46;101197.72;7394025;19;20011;-83
2023/05/31 11:16:46;;;;;;;4.78;0.50;;;;;;;30.43;35.60;101193.56;7395260;19;20022;-82
2023/05/31 11:19:17;;;;;;;1.25;0.25;;;;;;;30.36;34.98;101200.13;7399043;19;20015;-84
2023/05/31 11:21:47;;;;;;;1.65;0.55;;;;;;;30.44;35.24;101186.47;7395091;19;20478;-83
2023/05/31 13:49:04;;;;;;;2.47;0.50;;;;;;;32.88;32.42;101122.13;7394145;19;20082;-62
2023/05/31 13:51:37;;;;;;;1.27;0.45;;;;;;;32.67;32.77;101124.81;7391610;19;20447;-62
2023/05/31 14:05:49;;;;;;;0.47;0.32;;;;;;;32.05;32.90;101128.41;7400856;19;20018;-62
2023/05/31 14:09:47;;;;;;;;;;;;;;;;;;;;;
2023/05/31 14:23:27;;;;;;;0.30;0.20;;;;;;;32.00;33.50;101118.66;7400912;19;20010;-62
2023/05/31 14:25:57;;;;;;;0.57;0.43;;;;;;;32.22;33.32;101108.16;7398827;19;20006;-62